ESNX

Arvidsjaur Airport

Arvidsjaur, Sweden
METAR ESNX 151350Z 00000KT 9999 SG OVC006 M04/M05 Q0992
Observed Flight Rules
Dec-15 @ 13:50 UTC (19 minutes ago) Instrument Flight Rules
Wind Visibility Clouds Conditions
Calm 10,000+ meters
  • Overcast at 600' AGL
  • Snow grains
Temperatures Readings
Current -4°C / 25°F
Dewpoint -5°C / 23°F
Humidity 93%
Altimeter 29.29" Hg
Pressure 992 hPa
Elevation 379
METAR ESNX 151350Z 00000KT 9999 SG OVC006 M04/M05 Q0992
Observed Flight Rules
Dec-15 @ 13:50 UTC
(19 minutes ago)
IFR
Wind Visibility
Calm 10,000+ meters
Clouds
  • Overcast at 600' AGL
Conditions
  • Snow grains
Temperature Dewpoint
-4°C / 25°F -5°C / 23°F
Humidity Altimeter Pressure
93% 29.29" Hg 992 hPa